Time;durP1;ratioP1;P1;durP2;ratioP2;P2;SDS_P1;SDS_P2;PMS_P1;PMS_P2;Temp;Humidity;BMP_temperature;BMP_pressure;BME280_temperature;BME280_humidity;BME280_pressure;Samples;Min_cycle;Max_cycle;Signal;HPM_P1;HPM_P2
2022/12/15 00:40:29;;;;;;;20.85;13.02;;;0.70;98.50;;;;;;4977613;28;20216;-72
2022/12/15 00:42:55;;;;;;;18.07;11.60;;;0.70;98.60;;;;;;4945499;28;20265;-73
2022/12/15 00:46:53;;;;;;;22.10;13.90;;;0.70;98.60;;;;;;4994770;28;20499;-73
2022/12/15 00:48:07;;;;;;;23.40;14.02;;;0.70;98.50;;;;;;4994457;28;20490;-73
2022/12/15 00:50:51;;;;;;;25.23;12.90;;;0.70;98.40;;;;;;4977570;28;20535;-73
2022/12/15 01:20:59;;;;;;;20.40;12.15;;;0.60;98.30;;;;;;4976803;28;20202;-73
2022/12/15 01:23:25;;;;;;;18.95;12.20;;;0.60;98.20;;;;;;4976917;28;20243;-73
2022/12/15 01:25:52;;;;;;;17.95;11.77;;;0.60;98.20;;;;;;4994116;28;20197;-73
2022/12/15 01:28:21;;;;;;;17.95;12.32;;;0.60;98.20;;;;;;4992833;28;20250;-73
2022/12/15 01:30:48;;;;;;;20.27;11.75;;;0.60;98.20;;;;;;4972524;28;20200;-73
2022/12/15 01:33:14;;;;;;;19.42;12.52;;;0.60;98.20;;;;;;4957479;28;20302;-73
2022/12/15 01:35:40;;;;;;;19.77;12.15;;;0.60;98.20;;;;;;4957317;28;20168;-72
2022/12/15 01:38:08;;;;;;;19.37;13.37;;;0.60;98.10;;;;;;5037984;23;20242;-74
2022/12/15 01:40:48;;;;;;;21.00;12.20;;;0.60;98.00;;;;;;4979815;28;20418;-74
2022/12/15 01:43:21;;;;;;;19.88;11.15;;;0.60;97.90;;;;;;4993678;28;20212;-74
2022/12/15 01:45:51;;;;;;;22.38;13.68;;;0.60;97.90;;;;;;4960243;28;20277;-75
2022/12/15 01:48:27;;;;;;;17.80;12.43;;;0.60;98.00;;;;;;4976514;28;20180;-74
2022/12/15 01:51:09;;;;;;;19.48;11.82;;;0.50;97.90;;;;;;4975989;28;20215;-74
2022/12/15 01:53:42;;;;;;;19.88;12.32;;;0.50;98.00;;;;;;4960450;28;20165;-74
2022/12/15 01:56:11;;;;;;;20.02;11.77;;;0.50;97.90;;;;;;4960709;28;20624;-74
2022/12/15 01:58:43;;;;;;;20.05;11.82;;;0.50;98.00;;;;;;4993585;28;20182;-74
2022/12/15 02:01:12;;;;;;;19.00;11.63;;;0.50;97.90;;;;;;4976118;28;20207;-75
2022/12/15 02:03:42;;;;;;;17.08;11.15;;;0.50;97.90;;;;;;4961050;28;20175;-74
2022/12/15 02:06:10;;;;;;;16.08;12.00;;;0.50;98.00;;;;;;4975630;28;20356;-74
2022/12/15 02:08:42;;;;;;;18.42;11.68;;;0.50;98.00;;;;;;4982314;28;20327;-74
2022/12/15 02:11:43;;;;;;;17.00;10.60;;;0.50;98.00;;;;;;4969600;28;20214;-74
2022/12/15 02:14:11;;;;;;;15.55;10.88;;;0.50;98.00;;;;;;4974166;28;20572;-74
2022/12/15 02:16:55;;;;;;;19.58;12.45;;;0.50;97.90;;;;;;4974076;28;20632;-74
2022/12/15 02:19:43;;;;;;;17.33;11.40;;;0.50;98.00;;;;;;4940921;28;20259;-74
2022/12/15 02:22:34;;;;;;;21.45;11.13;;;0.50;98.10;;;;;;4956786;28;20239;-74
2022/12/15 02:25:23;;;;;;;14.35;10.43;;;0.50;98.00;;;;;;4956773;28;20210;-74
2022/12/15 02:28:14;;;;;;;17.88;11.35;;;0.50;98.10;;;;;;4973037;28;20198;-74
2022/12/15 02:31:48;;;;;;;19.23;10.80;;;0.50;98.10;;;;;;4956869;28;20191;-74
2022/12/15 02:33:41;;;;;;;15.88;10.65;;;0.50;98.10;;;;;;4973767;28;20186;-74
2022/12/15 02:36:30;;;;;;;18.70;11.60;;;0.40;98.00;;;;;;4940668;28;20201;-74
2022/12/15 02:38:58;;;;;;;20.33;11.98;;;0.40;98.10;;;;;;4972809;28;20199;-74
2022/12/15 02:41:37;;;;;;;19.70;12.20;;;0.40;98.10;;;;;;4956317;28;20684;-74
2022/12/15 02:44:19;;;;;;;17.35;11.52;;;0.40;98.10;;;;;;4973730;28;20903;-74
2022/12/15 02:47:10;;;;;;;17.83;12.57;;;0.40;98.10;;;;;;4940408;28;20279;-74
2022/12/15 02:50:11;;;;;;;18.85;12.13;;;0.40;98.10;;;;;;4940754;28;20193;-75
2022/12/15 02:52:46;;;;;;;20.55;12.10;;;0.40;98.20;;;;;;4934336;28;20291;-74
2022/12/15 02:55:50;;;;;;;18.27;11.90;;;0.40;98.10;;;;;;4940715;28;20182;-74
2022/12/15 02:58:22;;;;;;;16.25;11.10;;;0.40;98.30;;;;;;4950503;28;20229;-74
2022/12/15 03:00:56;;;;;;;18.13;12.32;;;0.40;98.30;;;;;;4956467;28;20509;-74
2022/12/15 03:03:23;;;;;;;17.98;11.75;;;0.40;98.30;;;;;;4940230;28;20230;-74
2022/12/15 03:05:53;;;;;;;27.15;12.25;;;0.40;98.30;;;;;;4956317;28;20580;-74
2022/12/15 03:08:23;;;;;;;18.85;11.93;;;0.40;98.40;;;;;;4973887;28;20169;-74
2022/12/15 03:10:51;;;;;;;20.50;12.18;;;0.40;98.40;;;;;;4973558;28;20224;-74
2022/12/15 03:13:22;;;;;;;19.08;11.80;;;0.30;98.40;;;;;;4940364;28;20186;-75
2022/12/15 03:15:51;;;;;;;19.35;12.82;;;0.40;98.50;;;;;;4956791;28;20199;-74
2022/12/15 03:18:17;;;;;;;19.70;13.00;;;0.40;98.50;;;;;;4942719;28;20173;-74
2022/12/15 03:20:49;;;;;;;17.80;11.85;;;0.30;98.50;;;;;;4960148;28;20173;-74
2022/12/15 03:23:15;;;;;;;20.27;11.90;;;0.30;98.50;;;;;;4943733;28;20210;-74
2022/12/15 03:25:44;;;;;;;18.52;12.27;;;0.40;98.70;;;;;;4976783;28;20599;-74
2022/12/15 03:28:11;;;;;;;22.77;13.15;;;0.40;98.60;;;;;;4976826;28;20156;-74
2022/12/15 03:30:37;;;;;;;19.17;11.73;;;0.30;98.60;;;;;;4959679;28;20165;-74
2022/12/15 03:33:03;;;;;;;19.30;11.60;;;0.40;98.60;;;;;;4968202;28;20209;-74
2022/12/15 03:35:29;;;;;;;20.10;12.40;;;0.40;98.60;;;;;;4975701;28;20428;-74
2022/12/15 03:37:57;;;;;;;21.92;13.45;;;0.30;98.50;;;;;;4957575;28;20455;-74
2022/12/15 03:40:23;;;;;;;22.23;12.90;;;0.40;98.50;;;;;;4959216;28;20192;-74
2022/12/15 03:42:49;;;;;;;29.77;12.90;;;0.40;98.40;;;;;;4959230;28;20219;-74
2022/12/15 03:45:19;;;;;;;17.35;11.65;;;0.40;98.40;;;;;;4959287;28;20475;-74
2022/12/15 03:47:46;;;;;;;17.13;12.00;;;0.30;98.40;;;;;;4987931;28;20211;-74
2022/12/15 03:50:15;;;;;;;21.23;11.27;;;0.40;98.50;;;;;;4946550;28;20186;-74
2022/12/15 03:52:44;;;;;;;20.67;12.77;;;0.30;98.40;;;;;;4995776;28;20678;-75
2022/12/15 03:55:13;;;;;;;19.58;13.25;;;0.40;98.40;;;;;;4995840;28;20647;-74
2022/12/15 03:57:39;;;;;;;19.95;12.68;;;0.40;98.30;;;;;;4978600;28;20556;-74
2022/12/15 04:00:06;;;;;;;20.33;12.85;;;0.30;98.30;;;;;;4962441;28;20673;-74
2022/12/15 04:02:41;;;;;;;21.30;13.68;;;0.40;98.40;;;;;;4995520;28;20209;-74
2022/12/15 04:05:17;;;;;;;18.58;12.65;;;0.30;98.30;;;;;;4978241;28;20674;-75
2022/12/15 04:07:45;;;;;;;20.67;12.80;;;0.30;98.40;;;;;;4978231;28;20256;-74
2022/12/15 04:10:11;;;;;;;23.25;14.18;;;0.20;98.50;;;;;;4995542;28;20170;-74
2022/12/15 04:12:40;;;;;;;20.40;13.38;;;0.20;98.50;;;;;;4978159;28;20313;-74
2022/12/15 04:15:09;;;;;;;23.00;14.60;;;0.20;98.60;;;;;;4962171;28;20172;-74
2022/12/15 04:17:36;;;;;;;21.73;12.27;;;0.30;98.60;;;;;;4978215;28;20427;-74
2022/12/15 04:20:09;;;;;;;20.45;14.13;;;0.20;98.60;;;;;;4978402;28;20176;-74
2022/12/15 04:22:35;;;;;;;21.60;12.90;;;0.30;98.60;;;;;;4961947;28;20207;-74
2022/12/15 05:31:51;;;;;;;24.08;13.63;;;0.10;98.70;;;;;;4973445;28;20604;-75
2022/12/15 05:34:21;;;;;;;24.60;14.07;;;0.10;98.70;;;;;;4957548;28;20164;-74
2022/12/15 05:36:49;;;;;;;26.90;13.70;;;0.10;98.70;;;;;;4925156;28;20198;-74
2022/12/15 05:39:19;;;;;;;24.13;14.43;;;0.20;98.70;;;;;;4957368;28;20199;-74
2022/12/15 05:41:48;;;;;;;27.48;14.45;;;0.20;98.60;;;;;;4956972;28;20204;-74
2022/12/15 05:44:14;;;;;;;28.15;14.00;;;0.20;98.60;;;;;;4957811;28;20192;-74
2022/12/15 05:46:40;;;;;;;29.70;14.85;;;0.20;98.60;;;;;;4974429;28;20213;-75
2022/12/15 05:49:07;;;;;;;28.50;14.57;;;0.20;98.60;;;;;;4957437;28;20190;-74
2022/12/15 05:51:38;;;;;;;27.30;14.65;;;0.20;98.60;;;;;;4974554;28;20188;-74
2022/12/15 05:54:07;;;;;;;26.55;14.63;;;0.10;98.50;;;;;;4941476;28;20168;-75
2022/12/15 05:56:33;;;;;;;28.70;15.70;;;0.10;98.60;;;;;;4941633;28;20178;-75
2022/12/15 05:58:59;;;;;;;24.13;14.20;;;0.10;98.60;;;;;;4957276;28;20174;-75
2022/12/15 06:01:34;;;;;;;25.88;14.20;;;0.10;98.70;;;;;;4957370;28;20751;-75
2022/12/15 06:04:06;;;;;;;27.73;15.00;;;0.10;98.60;;;;;;4941191;28;20207;-75
2022/12/15 06:06:39;;;;;;;31.70;15.45;;;0.10;98.70;;;;;;4956936;28;20203;-75
2022/12/15 06:09:08;;;;;;;27.80;14.82;;;0.10;98.70;;;;;;4957390;28;20242;-75
2022/12/15 06:11:39;;;;;;;27.92;15.52;;;0.10;98.80;;;;;;4940937;28;20201;-75
2022/12/15 06:14:08;;;;;;;33.65;17.02;;;0.10;98.80;;;;;;4957304;28;20186;-75
2022/12/15 06:16:34;;;;;;;28.55;15.95;;;0.10;98.80;;;;;;4973080;28;20172;-75
2022/12/15 06:19:01;;;;;;;33.95;15.52;;;0.10;98.80;;;;;;4957232;28;20262;-75
2022/12/15 06:21:34;;;;;;;28.63;16.10;;;0.10;98.70;;;;;;4957062;28;20211;-75
2022/12/15 06:24:04;;;;;;;31.42;16.40;;;0.10;98.70;;;;;;4956933;28;20170;-75
2022/12/15 06:26:35;;;;;;;27.08;14.32;;;0.10;98.80;;;;;;4956880;28;20585;-75
2022/12/15 06:29:08;;;;;;;30.25;15.23;;;0.10;98.80;;;;;;4974145;28;20646;-75
2022/12/15 06:31:38;;;;;;;34.47;15.98;;;0.10;98.90;;;;;;4974297;28;20191;-75
2022/12/15 06:34:07;;;;;;;28.58;16.00;;;0.10;98.80;;;;;;4974114;28;20240;-75
2022/12/15 06:36:40;;;;;;;33.60;17.27;;;0.10;98.80;;;;;;4973383;28;20264;-75
2022/12/15 06:39:09;;;;;;;30.23;16.58;;;0.10;98.80;;;;;;4941038;28;20610;-75
2022/12/15 06:41:40;;;;;;;35.20;15.20;;;0.20;98.80;;;;;;4956661;28;20265;-75
2022/12/15 06:44:11;;;;;;;34.95;16.75;;;0.10;98.70;;;;;;4974065;28;20176;-75
2022/12/15 06:46:37;;;;;;;27.90;15.98;;;0.10;98.70;;;;;;4973850;28;20196;-74
2022/12/15 06:49:06;;;;;;;28.27;17.50;;;0.10;98.80;;;;;;4956846;28;20244;-75
2022/12/15 06:51:35;;;;;;;32.65;16.80;;;0.10;98.80;;;;;;4967022;28;20216;-74
2022/12/15 06:54:04;;;;;;;29.88;16.67;;;0.10;98.80;;;;;;4994314;28;20174;-74
2022/12/15 06:56:36;;;;;;;29.88;16.10;;;0.10;98.80;;;;;;4993965;28;20245;-74
2022/12/15 06:59:04;;;;;;;29.48;16.73;;;0.10;98.80;;;;;;4977271;28;20272;-75
2022/12/15 07:01:33;;;;;;;33.42;16.05;;;0.10;98.70;;;;;;4974672;28;20322;-74
2022/12/15 07:04:04;;;;;;;31.23;17.27;;;0.10;98.70;;;;;;4991880;28;20175;-75
2022/12/15 07:06:37;;;;;;;34.05;17.42;;;0.10;98.80;;;;;;4961159;28;20229;-75
2022/12/15 07:09:06;;;;;;;34.72;16.73;;;0.10;98.80;;;;;;4994683;28;20234;-75
2022/12/15 07:11:32;;;;;;;33.58;18.17;;;0.10;98.70;;;;;;4983108;28;20211;-75
2022/12/15 07:13:58;;;;;;;35.53;16.90;;;0.10;98.80;;;;;;4995855;28;20168;-75
2022/12/15 07:16:26;;;;;;;35.17;18.63;;;0.10;98.80;;;;;;4975097;28;20190;-75
2022/12/15 07:18:52;;;;;;;34.78;19.17;;;0.10;98.80;;;;;;4961863;28;20217;-75
2022/12/15 07:21:18;;;;;;;33.15;17.27;;;0.10;98.80;;;;;;4961377;28;20205;-75
2022/12/15 07:23:46;;;;;;;34.50;16.10;;;0.10;98.80;;;;;;4977967;28;20230;-75
2022/12/15 07:26:12;;;;;;;28.70;17.48;;;0.10;98.80;;;;;;4977515;28;20521;-75
2022/12/15 07:28:40;;;;;;;35.40;18.08;;;0.10;98.80;;;;;;4975497;28;20676;-76
2022/12/15 07:31:09;;;;;;;31.73;16.67;;;0.10;98.80;;;;;;4994663;28;20195;-76
2022/12/15 07:33:36;;;;;;;30.98;15.98;;;0.10;98.80;;;;;;4977968;28;20186;-75
2022/12/15 07:36:07;;;;;;;34.13;18.42;;;0.10;98.80;;;;;;4958204;28;20204;-74
2022/12/15 07:38:36;;;;;;;32.05;17.30;;;0.10;98.80;;;;;;4962733;28;20755;-75
2022/12/15 07:41:04;;;;;;;30.92;16.50;;;0.10;98.70;;;;;;4976868;28;20347;-75
2022/12/15 07:43:35;;;;;;;38.08;17.42;;;0.10;98.80;;;;;;4961931;28;20185;-75
2022/12/15 07:46:03;;;;;;;28.55;15.35;;;0.10;98.90;;;;;;4957920;28;20209;-75
2022/12/15 07:48:34;;;;;;;37.08;17.70;;;0.10;98.90;;;;;;4987966;28;20196;-75
2022/12/15 07:51:07;;;;;;;28.50;16.20;;;0.10;98.90;;;;;;4957459;28;20183;-75
2022/12/15 07:53:36;;;;;;;27.45;15.68;;;0.10;98.80;;;;;;4956785;28;20214;-75
2022/12/15 07:56:06;;;;;;;36.15;17.20;;;0.00;98.80;;;;;;4956927;28;20181;-75
2022/12/15 07:58:36;;;;;;;30.38;16.08;;;0.00;98.90;;;;;;4968197;28;20582;-75
2022/12/15 08:01:09;;;;;;;32.60;16.15;;;0.00;99.00;;;;;;5007387;28;20183;-74
2022/12/15 08:03:36;;;;;;;29.23;16.58;;;0.00;99.30;;;;;;4974752;28;20197;-75
2022/12/15 08:06:08;;;;;;;41.90;17.50;;;0.00;98.90;;;;;;4975619;28;20187;-75
2022/12/15 08:08:37;;;;;;;28.70;15.50;;;0.00;99.00;;;;;;4961772;28;20645;-75
2022/12/15 08:11:12;;;;;;;30.52;17.05;;;0.00;99.00;;;;;;4945016;28;20238;-75
2022/12/15 08:14:04;;;;;;;29.58;15.60;;;0.10;99.00;;;;;;4981643;28;20588;-75
2022/12/15 08:16:35;;;;;;;29.65;15.55;;;0.00;98.80;;;;;;4977855;28;20188;-75
2022/12/15 08:19:02;;;;;;;30.33;15.25;;;0.10;98.90;;;;;;4994287;28;20179;-74
2022/12/15 08:21:30;;;;;;;30.73;15.63;;;0.10;98.90;;;;;;4973564;28;20258;-75
2022/12/15 08:23:56;;;;;;;31.30;16.23;;;0.10;98.80;;;;;;4984828;28;20227;-76
2022/12/15 08:26:26;;;;;;;29.20;16.50;;;0.10;98.90;;;;;;4946688;28;20295;-73
2022/12/15 08:28:52;;;;;;;31.10;15.20;;;0.00;98.80;;;;;;4960932;28;20188;-75
2022/12/15 08:31:20;;;;;;;27.80;15.10;;;0.00;98.90;;;;;;4976114;28;20211;-75
2022/12/15 08:33:48;;;;;;;26.63;15.25;;;0.00;98.90;;;;;;4993935;28;20167;-75
2022/12/15 08:36:18;;;;;;;25.88;14.88;;;0.00;98.80;;;;;;4960825;28;20193;-75
2022/12/15 08:38:46;;;;;;;28.33;16.13;;;0.00;98.90;;;;;;4976483;28;20294;-75
2022/12/15 08:41:21;;;;;;;27.60;14.90;;;0.00;98.90;;;;;;4976405;28;20219;-75
2022/12/15 08:43:51;;;;;;;27.48;14.82;;;0.00;98.90;;;;;;4975675;28;20262;-75
2022/12/15 08:46:20;;;;;;;28.90;14.73;;;0.00;98.90;;;;;;4973081;28;20212;-74
2022/12/15 08:48:46;;;;;;;27.45;15.52;;;0.10;98.90;;;;;;4987134;28;20214;-74
2022/12/15 08:51:13;;;;;;;25.52;14.23;;;0.10;98.90;;;;;;4992338;28;20209;-74
2022/12/15 08:53:39;;;;;;;26.08;15.30;;;0.10;98.90;;;;;;4960231;28;20187;-74
2022/12/15 08:56:08;;;;;;;30.80;16.73;;;0.10;98.90;;;;;;4992843;28;20179;-74
2022/12/15 08:58:37;;;;;;;29.10;15.23;;;0.10;98.90;;;;;;4976375;28;20182;-74
2022/12/15 09:01:09;;;;;;;29.00;15.95;;;0.00;98.90;;;;;;4959951;28;20800;-74
2022/12/15 09:03:39;;;;;;;25.25;16.23;;;0.00;99.00;;;;;;4967324;28;20657;-74
2022/12/15 09:06:20;;;;;;;29.50;15.05;;;0.00;99.00;;;;;;4972760;28;20201;-74
2022/12/15 09:08:49;;;;;;;23.73;15.43;;;0.00;98.90;;;;;;4963763;28;20615;-74
2022/12/15 09:11:15;;;;;;;29.80;15.20;;;0.00;99.00;;;;;;4943652;28;20298;-75
2022/12/15 09:13:41;;;;;;;26.05;15.15;;;0.00;99.00;;;;;;4971706;28;20218;-74
2022/12/15 09:16:12;;;;;;;26.48;14.88;;;0.00;99.10;;;;;;4973537;28;20208;-75
2022/12/15 09:18:47;;;;;;;29.77;16.05;;;0.10;99.10;;;;;;4959567;28;20283;-74
2022/12/15 09:21:16;;;;;;;30.67;17.13;;;0.10;99.00;;;;;;4993229;28;20736;-74
2022/12/15 09:23:45;;;;;;;29.40;16.05;;;0.00;99.10;;;;;;4956374;28;20211;-74
2022/12/15 09:26:14;;;;;;;29.05;16.50;;;0.00;99.20;;;;;;4991851;28;20195;-72
2022/12/15 09:28:44;;;;;;;33.92;16.83;;;0.00;99.20;;;;;;4993010;28;20172;-74
2022/12/15 09:31:16;;;;;;;25.52;16.15;;;0.10;99.20;;;;;;4975479;28;20202;-74
2022/12/15 09:33:45;;;;;;;30.13;16.48;;;0.10;99.20;;;;;;4956586;28;20179;-74
2022/12/15 09:36:12;;;;;;;33.40;17.30;;;0.10;99.20;;;;;;4940645;28;20177;-74
2022/12/15 09:38:39;;;;;;;30.17;17.30;;;0.10;99.10;;;;;;4959415;28;20542;-74
2022/12/15 09:41:14;;;;;;;30.48;16.70;;;0.00;99.10;;;;;;4975518;28;20219;-73
2022/12/15 09:44:19;;;;;;;29.90;17.13;;;0.00;99.20;;;;;;4950009;28;20247;-74
2022/12/15 09:47:28;;;;;;;31.45;17.70;;;0.00;99.20;;;;;;5040092;23;20495;-72
2022/12/15 09:50:00;;;;;;;34.00;17.65;;;0.00;99.10;;;;;;4976098;28;20165;-70
2022/12/15 09:52:30;;;;;;;30.17;16.83;;;0.00;99.10;;;;;;4991704;28;20285;-71
2022/12/15 09:55:00;;;;;;;27.83;16.33;;;0.10;99.20;;;;;;4973927;28;20184;-71
2022/12/15 09:57:39;;;;;;;33.03;17.98;;;0.10;99.10;;;;;;4976517;28;20169;-71
2022/12/15 10:00:23;;;;;;;35.15;17.48;;;0.10;99.10;;;;;;4963014;28;20726;-70
2022/12/15 10:02:58;;;;;;;34.45;18.35;;;0.10;99.20;;;;;;4974497;28;20675;-71
2022/12/15 10:05:43;;;;;;;37.08;18.95;;;0.10;99.20;;;;;;4993278;28;20215;-71
2022/12/15 10:08:09;;;;;;;30.65;17.40;;;0.10;99.20;;;;;;4992598;28;20177;-71
2022/12/15 10:10:44;;;;;;;34.60;19.20;;;0.10;99.20;;;;;;4979376;28;20187;-70
2022/12/15 10:13:18;;;;;;;35.63;18.27;;;0.10;99.10;;;;;;4990326;28;20225;-70
2022/12/15 10:15:51;;;;;;;33.13;17.85;;;0.10;99.20;;;;;;4997362;28;20201;-71
2022/12/15 10:18:43;;;;;;;33.03;19.63;;;0.10;99.20;;;;;;4976128;28;20279;-70
2022/12/15 10:21:14;;;;;;;30.75;17.75;;;0.10;99.20;;;;;;4974683;28;20230;-69
2022/12/15 10:23:40;;;;;;;38.53;19.08;;;0.10;99.20;;;;;;4974552;28;20222;-71
2022/12/15 10:26:22;;;;;;;31.70;19.50;;;0.10;99.20;;;;;;4960334;28;20212;-69
2022/12/15 10:29:14;;;;;;;35.03;19.33;;;0.20;99.20;;;;;;4981381;28;20199;-72
2022/12/15 10:31:58;;;;;;;31.13;17.75;;;0.20;99.20;;;;;;4978965;28;20241;-71
2022/12/15 10:34:28;;;;;;;29.08;17.30;;;0.20;99.10;;;;;;4963477;28;20241;-69
2022/12/15 10:36:57;;;;;;;32.15;18.15;;;0.20;99.10;;;;;;4996969;28;20172;-71
2022/12/15 10:39:37;;;;;;;36.60;20.23;;;0.20;99.10;;;;;;4978675;28;20223;-72
2022/12/15 10:42:12;;;;;;;34.53;19.05;;;0.20;99.10;;;;;;4997293;28;20230;-71
2022/12/15 10:44:43;;;;;;;34.88;20.25;;;0.20;99.10;;;;;;4973669;28;20179;-71
2022/12/15 10:47:31;;;;;;;36.50;20.25;;;0.20;99.20;;;;;;4997452;28;20274;-71
2022/12/15 10:50:21;;;;;;;33.42;19.33;;;0.20;99.20;;;;;;4946848;28;20200;-71
2022/12/15 10:52:50;;;;;;;33.83;20.00;;;0.20;99.20;;;;;;4959915;28;20204;-72
2022/12/15 10:55:42;;;;;;;36.50;20.88;;;0.20;99.20;;;;;;4959916;28;20563;-71
2022/12/15 10:58:20;;;;;;;36.88;19.95;;;0.20;99.20;;;;;;4946950;28;20250;-70
2022/12/15 11:01:03;;;;;;;36.38;19.70;;;0.20;99.50;;;;;;4947117;28;20787;-71
2022/12/15 11:03:35;;;;;;;33.00;20.27;;;0.20;99.10;;;;;;4962777;28;20297;-71
2022/12/15 11:06:08;;;;;;;37.78;19.70;;;0.20;99.20;;;;;;4959651;28;20215;-71
2022/12/15 11:08:36;;;;;;;34.30;18.88;;;0.20;99.10;;;;;;4960303;28;20625;-72
2022/12/15 11:14:19;;;;;;;35.10;19.45;;;0.30;99.20;;;;;;4978852;28;20187;-71
2022/12/15 11:16:52;;;;;;;33.85;19.27;;;0.30;99.10;;;;;;4978567;28;20223;-71
2022/12/15 11:19:35;;;;;;;34.47;19.25;;;0.30;99.20;;;;;;4962749;28;20184;-71
2022/12/15 11:22:33;;;;;;;38.67;20.70;;;0.30;99.20;;;;;;4959243;28;20213;-71
2022/12/15 11:25:19;;;;;;;37.15;19.45;;;0.30;99.20;;;;;;4959362;28;20253;-71
2022/12/15 11:27:47;;;;;;;37.50;20.20;;;0.30;99.30;;;;;;4959424;28;20273;-71
2022/12/15 11:30:16;;;;;;;36.65;20.63;;;0.30;99.20;;;;;;4986695;28;20176;-71
2022/12/15 11:32:47;;;;;;;42.00;20.13;;;0.30;99.20;;;;;;4978525;28;20224;-71
2022/12/15 11:35:18;;;;;;;41.80;20.33;;;0.30;99.30;;;;;;4978115;28;20539;-71
2022/12/15 11:37:50;;;;;;;35.42;20.58;;;0.30;99.30;;;;;;4961564;28;20181;-71
2022/12/15 11:40:25;;;;;;;35.05;21.30;;;0.30;99.30;;;;;;4990207;28;20191;-71
2022/12/15 11:42:51;;;;;;;37.47;20.05;;;0.30;99.30;;;;;;4927681;28;20688;-75
2022/12/15 11:45:44;;;;;;;35.53;20.40;;;0.30;99.40;;;;;;4953862;28;20582;-71
2022/12/15 11:48:20;;;;;;;38.17;21.92;;;0.30;99.30;;;;;;4956564;28;20586;-72
2022/12/15 11:50:52;;;;;;;33.50;19.30;;;0.30;99.30;;;;;;4990777;28;20200;-76
2022/12/15 11:53:41;;;;;;;39.55;21.85;;;0.30;99.40;;;;;;4992805;28;20221;-75
2022/12/15 11:56:25;;;;;;;35.63;19.92;;;0.30;99.30;;;;;;4955677;28;20714;-75
2022/12/15 11:59:36;;;;;;;40.28;20.63;;;0.30;99.30;;;;;;4957925;28;20203;-74
2022/12/15 12:02:18;;;;;;;36.47;20.67;;;0.30;99.30;;;;;;4960085;28;20209;-73
2022/12/15 12:05:13;;;;;;;37.72;21.88;;;0.40;99.30;;;;;;4971890;28;20182;-72
2022/12/15 12:08:16;;;;;;;41.33;22.45;;;0.30;99.30;;;;;;4958020;28;20239;-74
2022/12/15 12:10:56;;;;;;;37.40;19.27;;;0.30;99.30;;;;;;4963355;28;20187;-75
2022/12/15 12:13:41;;;;;;;36.30;19.83;;;0.30;99.40;;;;;;5005979;28;20179;-73
2022/12/15 12:16:22;;;;;;;36.03;20.63;;;0.40;99.40;;;;;;4967440;28;20263;-74
2022/12/15 12:18:56;;;;;;;40.60;22.23;;;0.40;99.30;;;;;;4961570;28;20643;-76
2022/12/15 12:21:33;;;;;;;38.83;21.70;;;0.40;99.40;;;;;;4958946;28;20216;-73
2022/12/15 12:24:01;;;;;;;38.58;22.33;;;0.40;99.40;;;;;;4993975;28;20719;-75
2022/12/15 12:26:27;;;;;;;42.03;22.75;;;0.40;99.40;;;;;;4977329;28;20224;-75
2022/12/15 12:29:13;;;;;;;35.63;20.88;;;0.40;99.40;;;;;;4974400;28;20189;-74
2022/12/15 12:31:50;;;;;;;43.28;22.40;;;0.40;99.40;;;;;;4944312;28;20581;-77
2022/12/15 12:34:26;;;;;;;41.58;22.45;;;0.40;99.40;;;;;;4977140;28;20287;-76
2022/12/15 12:36:54;;;;;;;38.47;20.98;;;0.40;99.50;;;;;;4977219;28;20162;-75
2022/12/15 12:39:23;;;;;;;36.00;21.20;;;0.50;99.50;;;;;;4994472;28;20177;-75
2022/12/15 12:42:18;;;;;;;39.00;21.05;;;0.50;99.80;;;;;;4993187;28;20210;-74
2022/12/15 12:44:48;;;;;;;43.15;23.58;;;0.50;99.50;;;;;;4965025;28;20674;-75
2022/12/15 12:47:20;;;;;;;38.85;21.83;;;0.50;99.50;;;;;;4941803;28;20201;-74
2022/12/15 12:49:51;;;;;;;40.42;21.85;;;0.50;99.50;;;;;;4974580;28;20177;-77
2022/12/15 12:52:23;;;;;;;46.45;24.65;;;0.50;99.50;;;;;;4965370;28;20205;-75
2022/12/15 12:55:14;;;;;;;42.60;23.75;;;0.50;99.80;;;;;;4941684;28;20200;-77
2022/12/15 12:57:41;;;;;;;42.30;21.98;;;0.50;99.60;;;;;;4973649;28;20169;-75
2022/12/15 13:00:07;;;;;;;47.10;23.98;;;0.50;99.50;;;;;;4973527;28;20176;-73
2022/12/15 13:02:54;;;;;;;45.00;23.70;;;0.50;99.60;;;;;;4975950;28;20583;-77
2022/12/15 13:05:23;;;;;;;40.08;21.15;;;0.50;99.50;;;;;;4960879;28;20192;-77
2022/12/15 13:08:14;;;;;;;41.22;22.27;;;0.50;99.50;;;;;;4960826;28;20169;-74
2022/12/15 13:10:46;;;;;;;42.30;22.25;;;0.50;99.60;;;;;;4975643;28;20210;-73
2022/12/15 13:13:30;;;;;;;38.75;22.45;;;0.50;99.50;;;;;;4981556;28;20287;-72
2022/12/15 13:16:25;;;;;;;39.95;22.52;;;0.50;99.60;;;;;;4961832;28;20187;-73
2022/12/15 13:19:03;;;;;;;39.83;23.50;;;0.60;99.60;;;;;;4960273;28;20274;-73
2022/12/15 13:21:44;;;;;;;38.00;21.80;;;0.50;99.60;;;;;;4958329;28;20238;-72
2022/12/15 13:24:31;;;;;;;43.55;23.30;;;0.50;99.60;;;;;;4958039;28;20241;-73
2022/12/15 13:27:25;;;;;;;43.92;23.20;;;0.50;99.60;;;;;;4974554;28;20382;-73
2022/12/15 13:30:02;;;;;;;40.65;20.42;;;0.60;99.70;;;;;;4971741;28;20329;-75
2022/12/15 13:32:50;;;;;;;39.20;21.95;;;0.60;99.70;;;;;;4965710;28;20971;-72
2022/12/15 13:35:20;;;;;;;37.22;20.48;;;0.60;99.60;;;;;;4974295;28;20169;-73
2022/12/15 13:37:57;;;;;;;34.35;20.83;;;0.60;99.60;;;;;;4974041;28;20197;-72
2022/12/15 13:40:31;;;;;;;37.90;22.75;;;0.60;99.60;;;;;;4991836;28;20187;-74
2022/12/15 13:43:04;;;;;;;40.30;22.80;;;0.60;99.60;;;;;;4958560;28;20269;-72
2022/12/15 13:45:36;;;;;;;33.47;20.27;;;0.60;99.70;;;;;;4942072;28;20353;-71
2022/12/15 13:48:41;;;;;;;36.42;21.80;;;0.60;99.60;;;;;;4973714;28;20295;-74
2022/12/15 13:51:29;;;;;;;39.25;21.25;;;0.60;99.60;;;;;;4974011;28;20160;-71
2022/12/15 13:54:23;;;;;;;38.83;22.70;;;0.60;99.60;;;;;;4991595;28;20207;-73
2022/12/15 13:56:59;;;;;;;39.08;21.23;;;0.60;99.50;;;;;;4988804;28;20192;-72
2022/12/15 13:59:29;;;;;;;42.40;22.48;;;0.60;99.50;;;;;;4973546;28;20656;-71
2022/12/15 14:01:56;;;;;;;46.28;23.63;;;0.60;99.60;;;;;;4957295;28;20611;-72
2022/12/15 14:04:24;;;;;;;34.38;21.08;;;0.60;99.60;;;;;;4973412;28;20476;-73
2022/12/15 14:06:56;;;;;;;33.58;20.73;;;0.70;99.70;;;;;;4973587;28;20213;-73
2022/12/15 14:09:40;;;;;;;39.38;21.60;;;0.70;99.60;;;;;;4957697;28;20184;-73
2022/12/15 14:12:11;;;;;;;34.03;21.08;;;0.70;99.70;;;;;;4963141;28;20201;-72
2022/12/15 14:14:46;;;;;;;34.40;21.35;;;0.70;99.70;;;;;;4974140;28;20837;-73
2022/12/15 14:17:15;;;;;;;37.35;21.85;;;0.60;99.70;;;;;;4957918;28;20203;-73
2022/12/15 14:19:49;;;;;;;37.50;22.05;;;0.60;99.70;;;;;;4991332;28;20514;-74
2022/12/15 14:22:23;;;;;;;34.05;20.45;;;0.70;99.80;;;;;;4973762;28;20237;-71
2022/12/15 14:24:51;;;;;;;39.55;21.88;;;0.70;99.60;;;;;;4958011;28;20173;-72
2022/12/15 14:27:26;;;;;;;36.15;20.05;;;0.70;99.60;;;;;;4974057;28;20201;-73
2022/12/15 14:30:11;;;;;;;38.25;21.85;;;0.70;99.60;;;;;;4991532;28;20253;-73
2022/12/15 14:32:38;;;;;;;35.03;20.00;;;0.70;99.60;;;;;;4968322;28;20562;-72
2022/12/15 14:35:05;;;;;;;38.38;20.50;;;0.70;99.60;;;;;;4953980;28;20182;-71
2022/12/15 14:37:34;;;;;;;32.78;18.83;;;0.70;99.70;;;;;;4973894;28;20183;-72
2022/12/15 14:42:55;;;;;;;33.88;19.73;;;0.70;99.60;;;;;;4973420;28;20199;-72
2022/12/15 14:45:25;;;;;;;29.90;18.13;;;0.70;99.60;;;;;;4973416;28;20205;-73
2022/12/15 14:48:01;;;;;;;29.13;17.83;;;0.70;99.60;;;;;;4973238;28;20204;-73
2022/12/15 14:50:27;;;;;;;33.40;19.13;;;0.70;99.50;;;;;;4956699;28;20180;-73
2022/12/15 14:53:05;;;;;;;35.25;18.77;;;0.70;99.50;;;;;;4957549;28;20208;-73
2022/12/15 14:55:36;;;;;;;36.10;18.70;;;0.70;99.60;;;;;;4937975;28;20196;-73
2022/12/15 14:58:30;;;;;;;39.45;21.30;;;0.70;99.60;;;;;;4969868;28;20257;-73
2022/12/15 15:00:57;;;;;;;35.38;19.67;;;0.70;99.70;;;;;;4984621;28;20251;-73
2022/12/15 15:03:38;;;;;;;34.33;18.83;;;0.70;99.70;;;;;;4973514;28;20184;-73
2022/12/15 15:06:16;;;;;;;34.42;19.65;;;0.70;99.70;;;;;;4972731;28;20220;-73
2022/12/15 15:08:49;;;;;;;34.65;18.60;;;0.70;99.60;;;;;;4973157;28;20179;-73
2022/12/15 15:11:36;;;;;;;30.83;18.27;;;0.70;99.70;;;;;;4990104;28;20617;-73
2022/12/15 15:14:13;;;;;;;29.58;17.35;;;0.70;99.70;;;;;;4971832;28;20169;-73
2022/12/15 15:16:43;;;;;;;31.75;17.40;;;0.70;99.70;;;;;;4957663;28;20235;-73
2022/12/15 15:19:21;;;;;;;33.72;19.33;;;0.70;99.70;;;;;;4942973;28;20180;-73
2022/12/15 15:21:47;;;;;;;32.80;18.52;;;0.70;99.80;;;;;;4957186;28;20572;-73
2022/12/15 15:24:14;;;;;;;37.10;19.17;;;0.70;99.80;;;;;;4957786;28;20245;-74
2022/12/15 15:26:40;;;;;;;32.90;19.60;;;0.70;99.70;;;;;;4957658;28;20953;-71
2022/12/15 15:29:39;;;;;;;35.00;19.17;;;0.70;99.70;;;;;;4974799;28;20299;-73